In Rescue
 
Open Full Screen Window  High Contrast Mode
Wind Gusting 00 knots
13
March 19, 2019 6:09 PM CDT
Weather Information
Wind Direction
  210 °
Wind Speed
  13 kt (15 mph)
Wind Gust
  00 kt (0 mph)
Altimeter
29.91 in
Visibility
10 SM
Temperature
03° C
37° F
Dewpoint
-02° C
28° F
Humidity
70%
1hr Rain Fall
00.00 in.
24hr Rain Fall
00.00 in.
Sky Condition
Broken @ 10,000 ft
VFR

METAR KFGN 192309Z AUTO 21013KT 10SM BKN100 03/M02 A2991 RMK AO2

FAA Disclaimer: The data displayed is for advisory purposes only and is not to be used for flight planning or operations.